Aeroporto :
LOGIN :

Iscrizione | Disclaimer

   EN    FR    IT 

 










Sommario :    VFR   VFR Marginale   IFR   IFR Intensivo   IFR Molto Intensivo
Visibilità : 
Base nubi : 
>= 8 km
>= 3000ft
5 / 8 km
1000 / 3000 ft
1500m / 5 km
500 / 1000 ft
800 / 1500m
200 / 500 ft
< 800m
< 200 ft
Simboli :   Temporali  Nebbia  Neve Forte  Precipitazioni Forti  Vento > 20 kt
SIGMETs :   Varie  Temporali  Ghiacco  Turbolenza  Onda orograficha  Ceneri Vulcaniche







- Altitudine del aeroporto : 40 ft
- Codice IATA : RMI


LIPR - Federico Fellini Int. Rimini

ULTIMO METAR :
  • 170715Z 29011KT CAVOK 23/20 Q1011

METARs OBSOLETI :
  • 170645Z 29011KT 9999 FEW030 22/20 Q1011
  • 170615Z 28009KT 9999 FEW030 SCT070 21/19 Q1010
  • 170545Z 27004KT 9999 SCT020 SCT070 21/19 Q1010
  • 170515Z 26005KT 9999 SCT020 SCT070 20/19 Q1009
  • 170445Z 26004KT 9999 SCT020 SCT070 20/19 Q1009

TAF TAF LIPR
Valido dal 17 a 06 ore il 17 a 15 ore UTC


170500Z 1706/1715 30008KT 9999 SCT020 SCT070
PROB30
TEMPO 1706/1712 5000 TSRA FEW020CB SCT050
BECMG 1712/1714 CAVOK
Nessun NOTAM noto per questo aeroporto.



MetMap, La meteo Aeronautica in un colpo d'occhio ! - Copyright ORBIFLY Dicembre 2007 - Disclaimer

ORBIFLY MET'MAP TEAM :

Programmazione e sviluppo : Alexandra Zaïnal
Concezione e sviluppo : Baudouin d'Aumeries
Co-Programmazione e sviluppo : Marc-Olivier Méhu
Supporto tecnico e logistico : Manuel Goepfert
Aiuto per la traduzione : Arnaldo La Scala

Contatto : metmap@orbifly.com




FONTI E CREDITI :

   NOAA